Time;durP1;ratioP1;P1;durP2;ratioP2;P2;SDS_P1;SDS_P2;PMS_P1;PMS_P2;Temp;Humidity;BMP_temperature;BMP_pressure;BME280_temperature;BME280_humidity;BME280_pressure;Samples;Min_cycle;Max_cycle;Signal;HPM_P1;HPM_P2
2023/02/27 00:02:58;;;;;;;1.85;0.43;;;;;;;2.16;50.99;101222.69;12775820;23;20033;-64
2023/02/27 00:07:59;;;;;;;3.65;0.63;;;;;;;2.15;50.85;101221.00;12748713;23;20075;-64
2023/02/27 00:13:01;;;;;;;3.08;0.70;;;;;;;2.09;51.28;101216.06;12777158;23;20021;-63
2023/02/27 00:18:02;;;;;;;1.88;0.30;;;;;;;1.95;51.57;101221.44;12778651;23;20025;-64
2023/02/27 00:23:05;;;;;;;1.77;0.50;;;;;;;1.90;51.91;101220.91;12776589;23;20029;-63
2023/02/27 00:28:07;;;;;;;1.67;0.40;;;;;;;1.79;51.84;101225.06;12776458;23;20087;-63
2023/02/27 00:33:08;;;;;;;0.65;0.35;;;;;;;1.70;52.17;101225.66;12777027;23;20339;-63
2023/02/27 00:38:09;;;;;;;3.72;0.50;;;;;;;1.68;51.96;101224.91;12778237;23;20040;-63
2023/02/27 00:43:11;;;;;;;2.70;0.40;;;;;;;1.59;52.43;101236.91;12778975;23;20025;-63
2023/02/27 00:48:12;;;;;;;2.38;0.90;;;;;;;1.57;51.91;101233.50;12780160;23;20469;-63
2023/02/27 00:53:13;;;;;;;1.63;0.50;;;;;;;1.49;52.94;101242.91;12784507;23;20029;-64
2023/02/27 00:58:15;;;;;;;2.42;0.60;;;;;;;1.38;52.51;101246.19;12782088;23;20071;-63
2023/02/27 01:03:17;;;;;;;1.20;0.45;;;;;;;1.35;52.91;101238.44;12782638;23;20025;-63
2023/02/27 01:08:19;;;;;;;2.75;0.40;;;;;;;1.34;52.66;101242.91;12782160;23;20028;-63
2023/02/27 01:13:21;;;;;;;1.38;0.50;;;;;;;1.21;53.24;101238.47;12780610;23;20036;-63
2023/02/27 01:18:24;;;;;;;4.00;0.50;;;;;;;1.26;53.14;101237.19;12781181;23;20358;-63
2023/02/27 01:23:25;;;;;;;1.67;0.40;;;;;;;1.24;52.75;101239.09;12782092;23;20025;-63
2023/02/27 01:28:27;;;;;;;1.52;0.52;;;;;;;1.12;53.42;101237.19;12780755;23;20025;-63
2023/02/27 01:33:28;;;;;;;1.80;0.40;;;;;;;1.13;53.43;101238.91;12781628;23;20493;-63
2023/02/27 01:38:29;;;;;;;1.20;0.40;;;;;;;1.18;53.47;101234.19;12781919;23;20033;-64
2023/02/27 01:43:31;;;;;;;0.73;0.38;;;;;;;1.19;53.40;101239.38;12753826;23;20428;-63
2023/02/27 01:48:37;;;;;;;2.13;0.47;;;;;;;1.22;54.05;101242.78;12779538;23;20032;-63
2023/02/27 01:53:41;;;;;;;1.48;0.30;;;;;;;1.22;53.75;101238.34;12755179;23;20021;-64
2023/02/27 01:58:44;;;;;;;1.38;0.45;;;;;;;1.20;54.13;101240.22;12781433;23;20028;-64
2023/02/27 02:04:09;;;;;;;1.58;0.30;;;;;;;1.19;53.90;101243.84;12779569;23;20479;-63
2023/02/27 02:09:12;;;;;;;1.17;0.20;;;;;;;1.07;53.64;101240.13;12779641;23;20350;-63
2023/02/27 02:14:14;;;;;;;16.38;1.73;;;;;;;1.05;54.13;101234.09;12780678;23;20025;-63
2023/02/27 02:20:06;;;;;;;0.80;0.38;;;;;;;0.98;53.93;101228.28;12779336;23;20021;-63
2023/02/27 02:25:30;;;;;;;1.20;0.32;;;;;;;1.02;54.64;101233.41;12779480;23;20021;-63
2023/02/27 02:30:50;;;;;;;0.50;0.30;;;;;;;0.89;54.23;101234.16;12779628;23;20020;-63
2023/02/27 02:36:29;;;;;;;2.15;0.30;;;;;;;0.89;54.54;101234.16;12781349;23;20017;-64
2023/02/27 02:41:48;;;;;;;1.35;0.40;;;;;;;0.83;55.23;101231.88;12779490;23;20021;-63
2023/02/27 02:47:06;;;;;;;2.90;0.60;;;;;;;0.89;55.15;101241.22;12780307;23;20048;-64
2023/02/27 02:52:27;;;;;;;2.15;0.40;;;;;;;0.95;54.68;101235.59;12779685;23;20071;-64
2023/02/27 02:57:36;;;;;;;1.33;0.30;;;;;;;0.97;54.70;101239.00;12779066;23;20484;-63
2023/02/27 03:03:14;;;;;;;4.13;0.60;;;;;;;1.02;54.43;101234.25;12791006;23;20020;-64
2023/02/27 03:08:24;;;;;;;5.43;0.40;;;;;;;1.07;54.93;101231.34;12767181;23;20029;-63
2023/02/27 03:13:40;;;;;;;0.60;0.25;;;;;;;1.07;54.62;101231.34;12781076;23;20017;-64
2023/02/27 03:18:55;;;;;;;0.90;0.30;;;;;;;1.12;54.21;101231.91;12781035;23;20029;-64
2023/02/27 03:24:01;;;;;;;2.42;0.40;;;;;;;1.17;54.33;101233.34;12790969;23;20037;-64
2023/02/27 03:29:08;;;;;;;1.33;0.25;;;;;;;1.22;53.91;101242.78;12779821;23;20096;-65
2023/02/27 03:34:32;;;;;;;1.88;0.30;;;;;;;1.19;54.47;101233.25;12783882;23;20032;-64
2023/02/27 03:39:48;;;;;;;2.30;0.70;;;;;;;1.21;54.24;101241.09;12778616;23;20043;-63
2023/02/27 03:44:57;;;;;;;0.40;0.30;;;;;;;1.17;54.24;101243.09;12780212;23;20020;-64
2023/02/27 03:49:59;;;;;;;1.02;0.20;;;;;;;1.17;53.69;101243.09;12780182;23;20060;-64
2023/02/27 03:55:08;;;;;;;1.70;0.30;;;;;;;1.17;54.09;101254.53;12781510;23;20016;-64
2023/02/27 04:00:14;;;;;;;1.50;0.20;;;;;;;1.18;54.11;101258.88;12780632;23;20025;-64
2023/02/27 04:05:17;;;;;;;0.77;0.30;;;;;;;1.09;54.68;101255.94;12779440;23;20028;-64
2023/02/27 04:10:48;;;;;;;0.93;0.50;;;;;;;1.00;54.29;101265.28;12777562;23;20021;-64
2023/02/27 04:16:08;;;;;;;0.65;0.30;;;;;;;0.96;54.29;101280.47;12779757;23;20024;-64
2023/02/27 04:21:18;;;;;;;1.85;0.47;;;;;;;0.91;54.16;101271.97;12780928;23;20025;-64
2023/02/27 04:26:22;;;;;;;3.78;0.40;;;;;;;0.85;54.93;101274.09;12759021;23;20029;-63
2023/02/27 04:31:44;;;;;;;0.90;0.28;;;;;;;0.76;54.83;101279.00;12784797;23;20029;-64
2023/02/27 04:37:00;;;;;;;1.75;0.40;;;;;;;0.69;55.40;101284.75;12782726;23;20453;-63
2023/02/27 04:42:10;;;;;;;2.97;0.40;;;;;;;0.60;55.91;101283.50;12784613;23;20025;-64
2023/02/27 04:47:15;;;;;;;1.08;0.30;;;;;;;0.53;55.48;101285.66;12781750;23;20032;-64
2023/02/27 04:52:21;;;;;;;1.27;0.30;;;;;;;0.46;55.17;101289.56;12784725;23;20021;-64
2023/02/27 04:57:37;;;;;;;1.30;0.30;;;;;;;0.46;55.74;101289.56;12783277;23;20466;-63
2023/02/27 05:02:57;;;;;;;0.75;0.40;;;;;;;0.39;55.72;101290.84;12785304;23;20025;-64
2023/02/27 05:08:08;;;;;;;2.88;0.30;;;;;;;0.33;55.64;101299.13;12780234;23;20024;-64
2023/02/27 05:13:14;;;;;;;0.68;0.30;;;;;;;0.31;56.21;101304.50;12780929;23;20032;-64
2023/02/27 05:18:18;;;;;;;1.48;0.40;;;;;;;0.30;55.64;101315.19;12778988;23;20025;-64
2023/02/27 05:23:30;;;;;;;2.70;0.95;;;;;;;0.34;56.47;101319.38;12780724;23;20027;-64
2023/02/27 05:28:37;;;;;;;1.15;0.40;;;;;;;0.29;56.09;101324.91;12782528;23;20083;-64
2023/02/27 05:34:10;;;;;;;1.55;0.40;;;;;;;0.23;56.02;101327.88;12790458;23;20020;-64
2023/02/27 05:39:14;;;;;;;2.28;0.40;;;;;;;0.24;56.84;101336.66;12781760;23;20025;-64
2023/02/27 05:44:19;;;;;;;2.47;0.32;;;;;;;0.30;56.57;101341.63;12786577;23;20028;-64
2023/02/27 05:49:37;;;;;;;1.33;0.50;;;;;;;0.37;56.66;101349.13;12778206;23;20025;-64
2023/02/27 05:54:54;;;;;;;2.97;0.33;;;;;;;0.44;56.73;101344.34;12778304;23;20358;-63
2023/02/27 06:00:09;;;;;;;0.80;0.40;;;;;;;0.46;56.86;101345.13;12778099;23;20331;-64
2023/02/27 06:05:14;;;;;;;1.10;0.40;;;;;;;0.47;56.50;101359.19;12774530;23;20021;-63
2023/02/27 06:10:18;;;;;;;1.10;0.50;;;;;;;0.49;56.94;101355.50;12774803;23;20163;-64
2023/02/27 06:15:19;;;;;;;0.77;0.30;;;;;;;0.59;56.44;101353.19;12774092;23;20022;-66
2023/02/27 06:20:21;;;;;;;3.35;0.50;;;;;;;0.70;56.50;101355.25;12775981;23;20025;-67
2023/02/27 06:25:22;;;;;;;1.42;0.40;;;;;;;0.77;56.67;101368.06;12775842;23;20024;-67
2023/02/27 06:30:24;;;;;;;2.63;1.13;;;;;;;0.81;56.54;101359.91;12776464;23;20031;-67
2023/02/27 06:35:27;;;;;;;1.92;0.47;;;;;;;0.84;57.27;101365.91;12777191;23;20024;-65
2023/02/27 06:40:29;;;;;;;1.73;0.50;;;;;;;0.91;57.16;101364.63;12748441;23;20041;-64
2023/02/27 06:45:31;;;;;;;1.27;0.35;;;;;;;0.93;56.47;101365.38;12774872;23;20032;-65
2023/02/27 06:50:32;;;;;;;1.58;0.35;;;;;;;1.01;56.41;101370.22;12775720;23;20101;-67
2023/02/27 06:55:33;;;;;;;1.33;0.40;;;;;;;1.12;56.78;101380.19;12777982;23;20035;-66
2023/02/27 07:00:35;;;;;;;2.05;0.60;;;;;;;1.16;56.72;101384.34;12772989;23;20516;-65
2023/02/27 07:05:36;;;;;;;3.45;0.50;;;;;;;1.17;56.72;101372.84;12774830;23;20021;-66
2023/02/27 07:10:38;;;;;;;2.13;0.70;;;;;;;1.12;57.34;101381.03;12772379;23;20021;-66
2023/02/27 07:15:40;;;;;;;3.55;0.50;;;;;;;1.21;57.23;101382.31;12774889;23;20481;-66
2023/02/27 07:20:41;;;;;;;0.60;0.40;;;;;;;1.26;57.19;101376.72;12775220;23;20735;-67
2023/02/27 07:25:43;;;;;;;1.95;0.43;;;;;;;1.35;57.17;101376.19;12775137;23;20024;-65
2023/02/27 07:30:45;;;;;;;1.90;0.60;;;;;;;1.44;57.20;101386.22;12777509;23;20024;-67
2023/02/27 07:35:47;;;;;;;2.55;0.50;;;;;;;1.55;57.48;101380.28;12774072;23;20025;-66
2023/02/27 07:40:48;;;;;;;1.55;0.60;;;;;;;1.64;57.37;101384.16;12771258;23;20112;-64
2023/02/27 07:45:50;;;;;;;1.58;0.75;;;;;;;1.76;57.09;101394.06;12773504;23;20087;-67
2023/02/27 07:50:52;;;;;;;1.58;0.50;;;;;;;1.89;56.82;101400.28;12773867;23;20058;-66
2023/02/27 07:55:53;;;;;;;1.25;0.50;;;;;;;2.01;56.32;101408.44;12776256;23;20017;-65
2023/02/27 08:00:54;;;;;;;2.08;0.55;;;;;;;2.17;56.21;101407.41;12781453;23;20032;-66
2023/02/27 08:05:56;;;;;;;0.80;0.50;;;;;;;2.20;56.23;101402.88;12779388;23;20048;-67
2023/02/27 08:10:57;;;;;;;2.35;0.80;;;;;;;2.22;56.47;101414.22;12750850;23;20025;-67
2023/02/27 08:15:59;;;;;;;1.23;0.57;;;;;;;2.37;55.74;101415.94;12779573;23;20029;-69
2023/02/27 08:21:00;;;;;;;1.95;0.60;;;;;;;2.43;56.38;101420.84;12779319;23;20208;-67
2023/02/27 08:26:02;;;;;;;1.65;0.80;;;;;;;2.57;56.07;101420.81;12778329;23;20025;-64
2023/02/27 08:31:03;;;;;;;2.78;0.65;;;;;;;2.70;55.88;101428.00;12777756;23;20021;-68
2023/02/27 08:36:06;;;;;;;3.63;0.68;;;;;;;2.92;55.31;101441.59;12778543;23;20025;-68
2023/02/27 08:41:21;;;;;;;1.42;0.65;;;;;;;3.19;54.96;101430.09;12778048;23;20055;-69
2023/02/27 08:46:22;;;;;;;2.38;0.60;;;;;;;3.19;54.65;101432.75;12778358;23;20028;-68
2023/02/27 08:51:24;;;;;;;2.63;0.70;;;;;;;3.33;55.12;101426.53;12777507;23;20417;-66
2023/02/27 08:56:26;;;;;;;1.55;0.70;;;;;;;3.29;55.07;101423.22;12784696;23;20082;-68
2023/02/27 09:01:33;;;;;;;1.25;0.50;;;;;;;3.36;54.46;101419.22;12775391;23;20732;-68
2023/02/27 09:06:35;;;;;;;0.70;0.40;;;;;;;3.48;54.17;101433.47;12776043;23;20079;-68
2023/02/27 09:11:36;;;;;;;4.10;0.65;;;;;;;3.61;53.70;101428.16;12777250;23;20501;-68
2023/02/27 09:16:39;;;;;;;1.50;0.50;;;;;;;3.57;53.51;101427.56;12777484;23;20136;-66
2023/02/27 09:21:41;;;;;;;1.95;0.52;;;;;;;3.70;53.17;101421.41;12750711;23;20021;-66
2023/02/27 09:26:42;;;;;;;2.95;0.40;;;;;;;3.83;52.94;101432.03;12795859;23;20021;-65
2023/02/27 09:31:47;;;;;;;1.60;0.50;;;;;;;3.94;52.64;101432.16;12807310;23;20048;-66
2023/02/27 09:36:48;;;;;;;1.27;0.52;;;;;;;4.14;52.55;101441.41;12815351;23;20021;-65
2023/02/27 09:42:04;;;;;;;1.98;0.52;;;;;;;4.56;52.30;101442.84;12781414;23;20485;-66
2023/02/27 09:47:13;;;;;;;0.63;0.35;;;;;;;4.73;51.67;101444.28;12833740;23;20032;-60
2023/02/27 09:52:14;;;;;;;2.00;0.50;;;;;;;5.13;50.94;101449.38;12838802;23;20069;-61
2023/02/27 09:57:28;;;;;;;1.17;0.50;;;;;;;5.35;50.74;101453.06;12811697;23;20239;-60
2023/02/27 10:02:43;;;;;;;3.85;0.73;;;;;;;5.28;50.42;101454.53;12836701;23;20005;-59
2023/02/27 10:08:13;;;;;;;1.63;0.50;;;;;;;5.28;50.39;101439.38;12833176;23;20021;-61
2023/02/27 10:14:09;;;;;;;4.10;0.45;;;;;;;5.37;50.13;101443.16;12829416;23;20091;-60
2023/02/27 10:19:22;;;;;;;0.98;0.60;;;;;;;5.35;49.97;101434.41;12637650;23;20026;-60
2023/02/27 10:24:28;;;;;;;0.95;0.50;;;;;;;5.40;49.61;101431.41;12808357;23;20982;-61
2023/02/27 10:29:29;;;;;;;1.83;0.35;;;;;;;5.33;48.97;101436.34;12823393;23;20043;-61
2023/02/27 10:34:33;;;;;;;1.60;0.30;;;;;;;5.24;49.33;101437.91;12826459;23;20074;-62
2023/02/27 10:39:45;;;;;;;0.85;0.40;;;;;;;5.24;48.99;101431.72;12837303;23;20001;-63
2023/02/27 10:44:52;;;;;;;0.93;0.40;;;;;;;5.41;48.40;101428.66;12837769;23;20029;-61
2023/02/27 10:49:54;;;;;;;2.53;0.47;;;;;;;5.53;48.22;101433.03;12836083;23;20077;-62
2023/02/27 10:55:17;;;;;;;12.50;1.38;;;;;;;5.70;48.64;101422.91;12836712;23;20056;-62
2023/02/27 11:00:27;;;;;;;4.18;0.40;;;;;;;5.86;48.54;101414.56;12836543;23;20032;-61
2023/02/27 11:05:35;;;;;;;1.23;0.60;;;;;;;6.02;47.08;101395.56;12838327;23;20068;-62
2023/02/27 11:10:52;;;;;;;0.93;0.40;;;;;;;6.33;47.39;101404.66;12833970;23;20063;-62
2023/02/27 11:16:22;;;;;;;1.48;0.82;;;;;;;6.71;46.62;101401.59;12837497;23;20080;-62
2023/02/27 11:21:27;;;;;;;1.13;0.55;;;;;;;6.94;46.38;101390.81;12811104;23;20044;-62
2023/02/27 11:26:35;;;;;;;1.08;0.38;;;;;;;6.86;46.25;101383.44;12838688;23;20016;-64
2023/02/27 11:31:38;;;;;;;1.33;0.85;;;;;;;6.92;46.15;101385.59;12837050;23;20005;-63
2023/02/27 11:36:45;;;;;;;1.95;0.30;;;;;;;6.86;46.11;101377.25;12836630;23;20056;-62
2023/02/27 11:41:47;;;;;;;0.73;0.35;;;;;;;6.89;46.29;101366.28;12836893;23;20015;-62
2023/02/27 11:46:49;;;;;;;0.30;0.30;;;;;;;6.92;45.40;101369.56;12836997;23;20024;-63
2023/02/27 13:12:14;;;;;;;0.50;0.20;;;;;;;8.10;39.57;101305.09;12875522;22;20071;-62
2023/02/27 13:17:38;;;;;;;0.55;0.20;;;;;;;8.33;39.16;101299.50;12900618;22;20056;-61
2023/02/27 13:22:53;;;;;;;0.50;0.50;;;;;;;8.51;38.01;101297.88;12932152;22;20012;-61
2023/02/27 13:27:59;;;;;;;0.28;0.20;;;;;;;8.94;37.55;101290.41;12939599;22;20093;-62
2023/02/27 13:33:11;;;;;;;0.75;0.20;;;;;;;9.46;37.11;101292.75;12916511;22;20019;-63
2023/02/27 13:38:42;;;;;;;0.75;0.20;;;;;;;9.75;36.89;101286.41;12940987;22;20020;-62
2023/02/27 13:43:45;;;;;;;1.85;0.20;;;;;;;9.70;37.03;101290.38;12967214;22;20020;-62
2023/02/27 13:49:04;;;;;;;4.03;0.20;;;;;;;10.11;36.30;101287.38;12962930;22;20030;-62
2023/02/27 13:54:12;;;;;;;2.85;0.20;;;;;;;10.20;35.89;101282.94;12913646;22;20008;-62
2023/02/27 13:59:25;;;;;;;2.58;0.20;;;;;;;10.44;35.25;101279.72;12932109;22;20037;-62
2023/02/27 14:04:32;;;;;;;0.32;0.10;;;;;;;10.67;34.88;101274.75;12957219;23;20067;-63
2023/02/27 14:09:44;;;;;;;;;;;;;;;10.96;35.27;101268.25;12929860;22;20075;-62
2023/02/27 14:14:49;;;;;;;2.80;0.30;;;;;;;10.96;34.45;101284.38;12962387;22;19904;-62
2023/02/27 14:19:55;;;;;;;1.08;0.50;;;;;;;11.12;33.81;101284.53;12960345;22;20039;-62
2023/02/27 14:25:05;;;;;;;1.03;0.20;;;;;;;11.24;33.63;101277.06;12959398;22;20070;-61
2023/02/27 14:30:24;;;;;;;0.20;0.10;;;;;;;11.43;32.76;101276.00;12960378;22;20235;-62
2023/02/27 14:35:27;;;;;;;0.32;0.20;;;;;;;11.47;32.95;101286.31;12961503;22;20010;-63
2023/02/27 14:40:46;;;;;;;0.50;0.20;;;;;;;11.01;33.36;101293.69;12962015;22;20000;-62
2023/02/27 14:45:48;;;;;;;3.05;0.82;;;;;;;10.69;33.44;101296.94;12934762;22;20004;-62
2023/02/27 14:50:52;;;;;;;0.40;0.10;;;;;;;10.36;33.56;101291.22;12959846;22;20394;-61
2023/02/27 14:55:56;;;;;;;3.03;0.20;;;;;;;10.03;33.50;101293.50;12962965;22;20319;-62
2023/02/27 15:01:02;;;;;;;1.05;0.10;;;;;;;9.84;33.41;101293.59;12959849;22;20004;-62
2023/02/27 15:06:13;;;;;;;1.70;0.10;;;;;;;9.57;33.60;101291.72;12961481;22;20024;-61
2023/02/27 15:11:17;;;;;;;0.65;0.30;;;;;;;9.32;34.06;101302.06;12959015;22;20020;-62
2023/02/27 15:16:41;;;;;;;0.30;0.30;;;;;;;8.97;34.21;101297.34;12960062;22;20252;-62
2023/02/27 15:21:55;;;;;;;0.38;0.17;;;;;;;8.89;34.24;101292.69;12961872;22;20035;-62
2023/02/27 15:27:09;;;;;;;0.20;0.20;;;;;;;8.82;34.15;101300.44;12963426;22;20026;-62
2023/02/27 15:32:46;;;;;;;0.88;0.20;;;;;;;8.63;34.76;101311.13;12958844;22;20008;-61
2023/02/27 15:37:56;;;;;;;0.63;0.20;;;;;;;8.38;35.43;101310.66;12952596;23;20016;-63
2023/02/27 15:42:59;;;;;;;1.08;0.20;;;;;;;8.09;35.54;101313.25;12955203;23;20030;-62
2023/02/27 15:48:01;;;;;;;0.28;0.20;;;;;;;7.85;35.68;101317.09;12949795;23;20012;-63
2023/02/27 15:53:18;;;;;;;0.50;0.10;;;;;;;7.68;36.13;101318.59;12949465;23;20020;-63
2023/02/27 15:58:36;;;;;;;0.93;0.10;;;;;;;7.55;36.97;101336.69;12925111;23;20067;-62
2023/02/27 16:03:43;;;;;;;1.13;0.10;;;;;;;7.55;36.43;101326.81;12957918;22;20034;-61
2023/02/27 16:08:51;;;;;;;1.25;0.30;;;;;;;7.36;36.95;101337.41;12953530;22;20020;-62
2023/02/27 16:13:54;;;;;;;1.67;0.40;;;;;;;7.24;37.04;101346.47;12955540;23;20020;-62
2023/02/27 16:18:58;;;;;;;0.70;0.20;;;;;;;7.16;37.28;101352.47;12961339;22;20034;-61
2023/02/27 16:24:20;;;;;;;0.90;0.20;;;;;;;7.11;37.52;101362.72;12964956;22;20040;-62
2023/02/27 16:29:27;;;;;;;2.03;0.40;;;;;;;7.09;37.81;101368.19;12963080;23;20008;-66
2023/02/27 16:34:32;;;;;;;1.30;0.28;;;;;;;7.02;38.37;101364.31;12961450;22;20004;-63
2023/02/27 16:39:48;;;;;;;0.73;0.28;;;;;;;6.95;38.01;101384.50;12963737;22;20130;-62
2023/02/27 16:55:24;;;;;;;1.33;0.88;;;;;;;6.87;38.30;101397.66;12893701;22;20036;-62
2023/02/27 17:00:26;;;;;;;0.30;0.30;;;;;;;6.81;38.67;101400.81;12875324;23;20032;-61
2023/02/27 17:05:27;;;;;;;1.10;0.82;;;;;;;6.76;38.19;101406.56;12899289;23;20051;-62
2023/02/27 17:10:28;;;;;;;0.82;0.30;;;;;;;6.72;38.52;101407.78;12868423;23;20566;-64
2023/02/27 17:15:30;;;;;;;1.77;0.30;;;;;;;6.61;38.57;101419.31;12851748;23;20009;-63
2023/02/27 17:20:31;;;;;;;0.50;0.30;;;;;;;6.55;39.27;101414.47;12787645;23;20028;-64
2023/02/27 17:25:33;;;;;;;0.98;0.38;;;;;;;6.42;38.55;101421.75;12844573;23;20078;-63
2023/02/27 17:30:35;;;;;;;1.98;0.50;;;;;;;6.34;38.74;101417.91;12843168;23;20020;-63
2023/02/27 17:35:36;;;;;;;1.05;0.80;;;;;;;6.31;39.16;101430.66;12844729;23;20040;-61
2023/02/27 17:40:39;;;;;;;1.20;1.10;;;;;;;6.24;39.79;101432.09;12840990;23;20024;-62
2023/02/27 17:45:40;;;;;;;10.10;1.23;;;;;;;6.20;39.52;101442.19;12840133;23;20017;-62
2023/02/27 17:50:42;;;;;;;3.03;0.55;;;;;;;6.10;40.29;101439.38;12843520;23;20040;-62
2023/02/27 17:55:45;;;;;;;1.27;0.45;;;;;;;6.01;40.35;101433.91;12844021;23;20020;-63
2023/02/27 18:00:46;;;;;;;1.10;0.40;;;;;;;5.89;40.18;101454.34;12858052;23;20016;-64
2023/02/27 18:05:51;;;;;;;3.03;0.45;;;;;;;5.87;40.63;101456.28;12858443;23;20032;-63
2023/02/27 18:10:53;;;;;;;1.58;0.40;;;;;;;5.81;39.97;101462.09;12823089;23;20579;-64
2023/02/27 18:15:56;;;;;;;2.05;0.80;;;;;;;5.79;40.75;101461.38;12853071;23;20016;-61
2023/02/27 18:21:00;;;;;;;0.60;0.40;;;;;;;5.73;40.64;101462.69;12843903;23;20028;-62
2023/02/27 18:26:01;;;;;;;0.50;0.40;;;;;;;5.72;40.58;101468.97;12836585;23;20484;-62
2023/02/27 18:31:03;;;;;;;0.93;0.43;;;;;;;5.70;40.75;101470.91;12837899;23;20146;-62
2023/02/27 18:36:05;;;;;;;0.63;0.40;;;;;;;5.70;41.09;101461.09;12839629;23;20040;-61
2023/02/27 18:41:08;;;;;;;1.10;0.40;;;;;;;5.66;40.86;101456.94;12838421;23;20020;-63
2023/02/27 18:46:11;;;;;;;2.58;1.20;;;;;;;5.60;41.29;101468.09;12839892;23;20024;-61
2023/02/27 18:51:14;;;;;;;3.65;1.50;;;;;;;5.43;41.80;101464.03;12838836;23;20082;-62
2023/02/27 18:56:19;;;;;;;8.52;2.90;;;;;;;5.24;42.32;101455.72;12840016;23;20346;-61
2023/02/27 19:01:25;;;;;;;12.48;6.15;;;;;;;5.09;42.72;101455.88;12810930;23;20163;-62
2023/02/27 19:06:26;;;;;;;3.25;1.70;;;;;;;5.02;42.37;101456.44;12837776;23;20082;-62
2023/02/27 19:11:33;;;;;;;1.58;1.00;;;;;;;4.83;43.10;101470.25;12835915;23;20071;-63
2023/02/27 19:16:35;;;;;;;0.55;0.50;;;;;;;4.74;43.47;101474.44;12836758;23;20021;-62
2023/02/27 19:21:37;;;;;;;1.63;0.50;;;;;;;4.64;44.08;101474.25;12808709;23;20020;-62
2023/02/27 19:26:39;;;;;;;1.13;0.73;;;;;;;4.54;43.81;101476.72;12844017;23;20020;-61
2023/02/27 19:31:40;;;;;;;5.80;1.95;;;;;;;4.46;43.93;101476.38;12834874;23;20020;-62
2023/02/27 19:36:42;;;;;;;2.67;1.50;;;;;;;4.42;44.32;101476.72;12837966;23;20046;-63
2023/02/27 19:41:43;;;;;;;2.95;0.98;;;;;;;4.39;44.92;101485.78;12834014;23;20059;-62
2023/02/27 19:46:49;;;;;;;2.60;0.90;;;;;;;4.34;44.68;101487.91;12853492;23;20024;-62
2023/02/27 19:51:51;;;;;;;1.30;0.90;;;;;;;4.42;45.23;101495.34;12885984;23;20028;-62
2023/02/27 19:56:53;;;;;;;1.60;0.85;;;;;;;4.37;45.15;101495.69;12840907;23;20056;-61
2023/02/27 20:01:54;;;;;;;5.88;2.00;;;;;;;4.40;45.71;101495.44;12884466;23;20028;-61
2023/02/27 20:06:56;;;;;;;7.32;2.80;;;;;;;4.46;45.92;101502.16;12852444;23;20016;-61
2023/02/27 20:12:00;;;;;;;9.13;2.80;;;;;;;4.53;45.19;101506.94;12893237;23;20053;-62
2023/02/27 20:17:02;;;;;;;4.95;1.77;;;;;;;4.54;45.77;101505.13;12886573;23;20004;-61
2023/02/27 20:22:03;;;;;;;6.63;2.70;;;;;;;4.51;45.96;101503.53;12878755;23;20020;-62
2023/02/27 20:27:06;;;;;;;10.02;3.42;;;;;;;4.55;46.24;101506.84;12822118;23;20020;-61
2023/02/27 20:32:07;;;;;;;7.18;2.92;;;;;;;4.63;46.22;101507.16;12854335;23;20469;-61
2023/02/27 20:37:09;;;;;;;9.50;3.17;;;;;;;4.60;46.53;101499.41;12824954;23;20020;-60
2023/02/27 20:42:12;;;;;;;6.28;2.35;;;;;;;4.57;46.55;101494.28;12821227;23;20033;-62
2023/02/27 20:47:14;;;;;;;2.05;1.38;;;;;;;4.55;46.95;101491.72;12850818;23;20052;-62
2023/02/27 20:52:15;;;;;;;2.97;1.42;;;;;;;4.57;46.61;101494.28;12822724;23;20021;-61
2023/02/27 20:57:17;;;;;;;6.40;1.58;;;;;;;4.55;47.23;101501.53;12856211;23;20020;-60
2023/02/27 21:02:18;;;;;;;4.55;1.92;;;;;;;4.58;47.74;101493.31;12849240;23;20037;-61
2023/02/27 21:07:23;;;;;;;1.83;1.10;;;;;;;4.56;47.57;101495.22;12849508;23;20016;-60
2023/02/27 21:12:24;;;;;;;1.48;0.93;;;;;;;4.59;47.77;101499.50;12848267;23;20024;-61
2023/02/27 21:17:26;;;;;;;2.97;1.02;;;;;;;4.53;47.96;101506.09;12823147;23;20331;-61
2023/02/27 21:22:27;;;;;;;2.25;1.50;;;;;;;4.48;48.25;101498.44;12823789;23;20084;-61
2023/02/27 21:27:29;;;;;;;3.55;1.83;;;;;;;4.47;48.13;101493.22;12849031;23;20086;-61
2023/02/27 21:32:30;;;;;;;4.20;1.77;;;;;;;4.46;48.59;101489.69;12824262;23;20024;-62
2023/02/27 21:37:32;;;;;;;3.33;2.10;;;;;;;4.41;48.40;101480.34;12849095;23;20039;-62
2023/02/27 21:42:33;;;;;;;1.80;1.30;;;;;;;4.28;49.05;101488.34;12849901;23;20047;-60
2023/02/27 21:47:34;;;;;;;2.17;1.35;;;;;;;4.19;49.07;101487.19;12842696;23;20025;-62
2023/02/27 21:52:36;;;;;;;3.47;1.75;;;;;;;4.10;49.42;101488.66;12843401;23;20036;-61
2023/02/27 21:57:38;;;;;;;1.70;1.15;;;;;;;4.09;49.51;101488.78;12848241;23;20017;-61
2023/02/27 22:02:40;;;;;;;2.95;1.20;;;;;;;3.97;49.50;101483.34;12846847;23;20036;-61
2023/02/27 22:07:41;;;;;;;2.25;0.90;;;;;;;3.92;49.78;101488.09;12840625;23;20053;-61
2023/02/27 22:12:42;;;;;;;5.45;2.50;;;;;;;3.95;49.57;101484.41;12839906;23;20016;-61
2023/02/27 22:17:44;;;;;;;3.70;1.50;;;;;;;3.94;49.44;101491.50;12842435;23;20028;-62
2023/02/27 22:22:46;;;;;;;2.60;1.38;;;;;;;3.94;49.37;101494.16;12843102;23;20048;-61
2023/02/27 22:27:47;;;;;;;3.63;2.13;;;;;;;3.86;49.52;101491.19;12841879;23;20035;-60
2023/02/27 22:32:48;;;;;;;5.20;3.50;;;;;;;3.76;49.72;101485.63;12842348;23;20074;-60
2023/02/27 22:37:50;;;;;;;15.57;7.03;;;;;;;3.72;49.90;101491.28;12840882;23;20028;-60
2023/02/27 22:42:51;;;;;;;6.88;4.18;;;;;;;3.69;50.41;101489.69;12841761;23;20024;-62
2023/02/27 22:47:52;;;;;;;4.25;2.20;;;;;;;3.65;50.56;101485.50;12842410;23;20025;-62
2023/02/27 22:52:54;;;;;;;2.67;1.83;;;;;;;3.61;50.43;101485.81;12841680;23;20025;-60
2023/02/27 22:57:57;;;;;;;2.65;1.50;;;;;;;3.51;50.37;101482.91;12846186;23;20013;-60
2023/02/27 23:02:58;;;;;;;2.45;1.70;;;;;;;3.54;51.32;101485.38;12840213;23;20412;-61
2023/02/27 23:07:59;;;;;;;2.97;2.03;;;;;;;3.51;51.46;101486.41;12845663;23;20028;-60
2023/02/27 23:13:01;;;;;;;2.75;2.00;;;;;;;3.51;51.26;101493.56;12848754;23;20759;-62
2023/02/27 23:18:04;;;;;;;2.38;1.90;;;;;;;3.44;52.10;101486.97;12820914;23;20020;-62
2023/02/27 23:23:06;;;;;;;5.90;2.30;;;;;;;3.48;51.72;101493.78;12846581;23;20024;-61
2023/02/27 23:28:07;;;;;;;2.50;1.83;;;;;;;3.48;51.97;101493.78;12836774;23;20025;-61
2023/02/27 23:33:09;;;;;;;3.50;2.40;;;;;;;3.52;51.82;101488.13;12839370;23;20040;-62
2023/02/27 23:38:10;;;;;;;3.30;1.67;;;;;;;3.54;52.56;101496.03;12839746;23;20048;-61
2023/02/27 23:43:13;;;;;;;3.80;1.50;;;;;;;3.52;52.60;101487.28;12839340;23;20020;-59
2023/02/27 23:48:14;;;;;;;1.67;1.52;;;;;;;3.50;52.36;101489.22;12838654;23;20040;-60
2023/02/27 23:53:16;;;;;;;4.35;1.80;;;;;;;3.44;52.46;101485.16;12840333;23;20024;-60
2023/02/27 23:58:17;;;;;;;3.88;1.70;;;;;;;3.38;52.55;101490.88;12838393;23;20349;-60
